Time;durP1;ratioP1;P1;durP2;ratioP2;P2;SDS_P1;SDS_P2;PMS_P1;PMS_P2;Temp;Humidity;BMP_temperature;BMP_pressure;BME280_temperature;BME280_humidity;BME280_pressure;Samples;Min_cycle;Max_cycle;Signal;HPM_P1;HPM_P2
2023/10/29 00:02:24;;;;;;;;;;;0.90;99.90;;;;;;5036210;28;19901;-86
2023/10/29 00:04:50;;;;;;;;;;;0.90;99.90;;;;;;5048518;28;19959;-85
2023/10/29 00:07:16;;;;;;;;;;;0.80;99.90;;;;;;5014882;28;19911;-86
2023/10/29 00:09:42;;;;;;;;;;;0.80;99.90;;;;;;5040800;28;19917;-85
2023/10/29 00:12:07;;;;;;;;;;;0.80;99.90;;;;;;5024322;28;19917;-85
2023/10/29 00:14:33;;;;;;;;;;;0.70;99.90;;;;;;5036927;28;19917;-86
2023/10/29 00:16:59;;;;;;;;;;;0.70;99.90;;;;;;5027065;28;20388;-86
2023/10/29 00:19:24;;;;;;;;;;;0.70;99.90;;;;;;5039807;28;19912;-83
2023/10/29 00:21:50;;;;;;;;;;;0.60;99.90;;;;;;5047106;28;19992;-86
2023/10/29 00:24:16;;;;;;;;;;;0.60;99.90;;;;;;5033690;28;19944;-85
2023/10/29 00:26:41;;;;;;;;;;;0.70;99.90;;;;;;5005418;28;19909;-85
2023/10/29 00:29:07;;;;;;;;;;;0.70;99.90;;;;;;5048317;28;19920;-84
2023/10/29 00:31:33;;;;;;;;;;;0.60;99.90;;;;;;5050856;28;19913;-86
2023/10/29 00:33:59;;;;;;;;;;;0.60;99.90;;;;;;5048369;28;20318;-86
2023/10/29 00:36:25;;;;;;;;;;;0.70;99.90;;;;;;5046534;28;19909;-85
2023/10/29 00:38:50;;;;;;;;;;;0.70;99.90;;;;;;5016577;28;19912;-87
2023/10/29 00:41:16;;;;;;;;;;;0.70;99.90;;;;;;5022612;28;20397;-86
2023/10/29 00:43:42;;;;;;;;;;;0.70;99.90;;;;;;5017495;28;19971;-86
2023/10/29 00:46:08;;;;;;;;;;;0.70;99.90;;;;;;5014462;28;19917;-86
2023/10/29 00:48:34;;;;;;;;;;;0.70;99.90;;;;;;5033095;28;19917;-86
2023/10/29 00:51:00;;;;;;;;;;;0.70;99.90;;;;;;5033486;28;19905;-85
2023/10/29 00:53:26;;;;;;;;;;;0.70;99.90;;;;;;5033409;28;19905;-85
2023/10/29 00:55:53;;;;;;;;;;;0.70;99.90;;;;;;5033248;28;19945;-87
2023/10/29 00:58:19;;;;;;;;;;;0.70;99.90;;;;;;5014402;28;19916;-87
2023/10/29 01:00:45;;;;;;;;;;;0.70;99.90;;;;;;5015638;28;19913;-85
2023/10/29 01:03:11;;;;;;;;;;;0.70;99.90;;;;;;5033086;28;19909;-85
2023/10/29 01:05:37;;;;;;;;;;;0.70;99.90;;;;;;5032892;28;19912;-86
2023/10/29 01:08:05;;;;;;;;;;;0.70;99.90;;;;;;5014944;28;19979;-85
2023/10/29 01:10:31;;;;;;;;;;;0.70;99.90;;;;;;5001702;28;19905;-86
2023/10/29 01:12:57;;;;;;;;;;;0.70;99.90;;;;;;5026184;28;20351;-87
2023/10/29 01:15:22;;;;;;;;;;;0.70;99.90;;;;;;5014183;28;20020;-86
2023/10/29 01:17:48;;;;;;;;;;;0.70;99.90;;;;;;5031131;28;20279;-86
2023/10/29 01:20:14;;;;;;;;;;;0.70;99.90;;;;;;5032788;28;19959;-84
2023/10/29 01:22:39;;;;;;;;;;;0.70;99.90;;;;;;5032780;28;19909;-87
2023/10/29 01:25:09;;;;;;;;;;;0.70;99.90;;;;;;5033430;28;20004;-86
2023/10/29 01:27:35;;;;;;;;;;;0.70;99.90;;;;;;5032806;28;19905;-85
2023/10/29 01:30:01;;;;;;;;;;;0.70;99.90;;;;;;5018813;28;19913;-86
2023/10/29 01:32:27;;;;;;;;;;;0.70;99.90;;;;;;5014995;28;19905;-86
2023/10/29 01:34:52;;;;;;;;;;;0.70;99.90;;;;;;5037194;28;19920;-86
2023/10/29 01:37:18;;;;;;;;;;;0.70;99.90;;;;;;5055596;28;19913;-85
2023/10/29 01:39:44;;;;;;;;;;;0.70;99.90;;;;;;5037914;28;20381;-87
2023/10/29 01:42:09;;;;;;;;;;;0.80;99.90;;;;;;5036701;28;19909;-86
2023/10/29 01:44:35;;;;;;;;;;;0.80;99.90;;;;;;5037789;28;20445;-85
2023/10/29 01:47:01;;;;;;;;;;;0.80;99.90;;;;;;5019900;28;19905;-85
2023/10/29 01:49:26;;;;;;;;;;;0.70;99.90;;;;;;5018992;28;19920;-85
2023/10/29 01:51:52;;;;;;;;;;;0.70;99.90;;;;;;5023200;28;19996;-86
2023/10/29 01:54:17;;;;;;;;;;;0.70;99.90;;;;;;5017551;28;19916;-87
2023/10/29 01:56:43;;;;;;;;;;;0.80;99.90;;;;;;5030592;28;19959;-86
2023/10/29 01:59:11;;;;;;;;;;;0.80;99.90;;;;;;5016591;28;19912;-88
2023/10/29 02:01:37;;;;;;;;;;;0.70;99.90;;;;;;5014283;28;19905;-87
2023/10/29 02:04:03;;;;;;;;;;;0.70;99.90;;;;;;5030623;28;20348;-85
2023/10/29 02:06:29;;;;;;;;;;;0.70;99.90;;;;;;5037640;28;20251;-85
2023/10/29 02:08:54;;;;;;;;;;;0.60;99.90;;;;;;5006650;28;19924;-85
2023/10/29 02:11:20;;;;;;;;;;;0.70;99.90;;;;;;5023442;28;19905;-86
2023/10/29 02:13:46;;;;;;;;;;;0.70;99.90;;;;;;5051840;28;19992;-85
2023/10/29 02:16:11;;;;;;;;;;;0.70;99.90;;;;;;5030495;28;19917;-86
2023/10/29 02:18:37;;;;;;;;;;;0.70;99.90;;;;;;5049805;28;19905;-87
2023/10/29 02:21:03;;;;;;;;;;;0.70;99.90;;;;;;5029765;28;19917;-86
2023/10/29 02:23:28;;;;;;;;;;;0.70;99.90;;;;;;5035285;28;19905;-86
2023/10/29 02:25:54;;;;;;;;;;;0.70;99.90;;;;;;5025638;28;19909;-86
2023/10/29 02:28:19;;;;;;;;;;;0.80;99.90;;;;;;5034016;28;20051;-87
2023/10/29 02:30:45;;;;;;;;;;;0.80;99.90;;;;;;5048345;28;19915;-87
2023/10/29 02:33:11;;;;;;;;;;;0.80;99.90;;;;;;5028288;28;19909;-87
2023/10/29 02:35:36;;;;;;;;;;;0.80;99.90;;;;;;5020514;28;19905;-87
2023/10/29 02:38:02;;;;;;;;;;;0.80;99.90;;;;;;5022806;28;19960;-84
2023/10/29 02:40:27;;;;;;;;;;;0.80;99.90;;;;;;5014041;28;19956;-86
2023/10/29 02:42:53;;;;;;;;;;;0.80;99.90;;;;;;5031084;28;20413;-86
2023/10/29 02:45:19;;;;;;;;;;;0.80;99.90;;;;;;5055461;28;19904;-86
2023/10/29 02:47:44;;;;;;;;;;;0.80;99.90;;;;;;5042239;28;19905;-86
2023/10/29 02:50:10;;;;;;;;;;;0.90;99.90;;;;;;5049391;28;19945;-87
2023/10/29 02:52:36;;;;;;;;;;;0.90;99.90;;;;;;5035542;28;20346;-85
2023/10/29 02:55:01;;;;;;;;;;;0.90;99.90;;;;;;5026547;28;19909;-86
2023/10/29 02:57:30;;;;;;;;;;;0.90;99.90;;;;;;5024542;28;19909;-86
2023/10/29 02:59:56;;;;;;;;;;;1.00;99.90;;;;;;5004703;28;20274;-88
2023/10/29 03:02:21;;;;;;;;;;;1.00;99.90;;;;;;5059488;28;19905;-87
2023/10/29 03:04:47;;;;;;;;;;;1.00;99.90;;;;;;5031841;28;20393;-85
2023/10/29 03:07:13;;;;;;;;;;;0.90;99.90;;;;;;5047576;28;19944;-86
2023/10/29 03:09:39;;;;;;;;;;;1.00;99.90;;;;;;5056713;28;19925;-85
2023/10/29 03:12:05;;;;;;;;;;;1.00;99.90;;;;;;5021105;28;20328;-85
2023/10/29 03:14:31;;;;;;;;;;;1.00;99.90;;;;;;5019780;28;19917;-87
2023/10/29 03:16:56;;;;;;;;;;;1.00;99.90;;;;;;5029689;28;19912;-85
2023/10/29 03:19:22;;;;;;;;;;;1.00;99.90;;;;;;5035222;28;20244;-86
2023/10/29 03:21:49;;;;;;;;;;;1.00;99.90;;;;;;5034925;28;19963;-86
2023/10/29 03:24:15;;;;;;;;;;;1.10;99.90;;;;;;5033920;28;19959;-87
2023/10/29 03:26:41;;;;;;;;;;;1.10;99.90;;;;;;5024867;28;19970;-86
2023/10/29 03:29:07;;;;;;;;;;;1.00;99.90;;;;;;5028726;28;20437;-86
2023/10/29 03:31:33;;;;;;;;;;;1.00;99.90;;;;;;5038697;28;19936;-88
2023/10/29 03:33:59;;;;;;;;;;;1.00;99.90;;;;;;5027430;28;19909;-86
2023/10/29 03:36:24;;;;;;;;;;;1.00;99.90;;;;;;5014673;28;19964;-86
2023/10/29 03:38:50;;;;;;;;;;;1.00;99.90;;;;;;5034537;28;20359;-86
2023/10/29 03:41:20;;;;;;;;;;;1.00;99.90;;;;;;5016639;28;20366;-86
2023/10/29 03:43:45;;;;;;;;;;;0.90;99.90;;;;;;5034605;28;19905;-86
2023/10/29 03:46:11;;;;;;;;;;;0.90;99.90;;;;;;5032977;28;19916;-84
2023/10/29 03:48:42;;;;;;;;;;;1.00;99.90;;;;;;5034171;28;19913;-87
2023/10/29 03:51:07;;;;;;;;;;;0.90;99.90;;;;;;5022286;28;19909;-86
2023/10/29 03:53:33;;;;;;;;;;;0.90;99.90;;;;;;5032964;28;19905;-86
2023/10/29 03:56:00;;;;;;;;;;;0.90;99.90;;;;;;5034057;28;19912;-85
2023/10/29 03:58:26;;;;;;;;;;;0.90;99.90;;;;;;5047783;28;19905;-85
2023/10/29 04:00:52;;;;;;;;;;;0.90;99.90;;;;;;5018181;28;20067;-85
2023/10/29 04:03:17;;;;;;;;;;;0.80;99.90;;;;;;5053841;28;20035;-86
2023/10/29 04:05:43;;;;;;;;;;;0.80;99.90;;;;;;5039733;28;19944;-86
2023/10/29 04:08:09;;;;;;;;;;;0.90;99.90;;;;;;5030337;28;19913;-86
2023/10/29 04:10:34;;;;;;;;;;;0.90;99.90;;;;;;5041067;28;19906;-85
2023/10/29 04:13:00;;;;;;;;;;;0.90;99.90;;;;;;5039803;28;19912;-86
2023/10/29 04:15:25;;;;;;;;;;;0.90;99.90;;;;;;5022709;28;19963;-85
2023/10/29 04:17:51;;;;;;;;;;;0.90;99.90;;;;;;5011474;28;19982;-86
2023/10/29 04:20:17;;;;;;;;;;;1.00;99.90;;;;;;5042819;28;20000;-83
2023/10/29 04:22:42;;;;;;;;;;;1.00;99.90;;;;;;5035220;28;19913;-84
2023/10/29 04:25:08;;;;;;;;;;;0.90;99.90;;;;;;5015857;28;19909;-86
2023/10/29 04:27:34;;;;;;;;;;;0.90;99.90;;;;;;5019904;28;19909;-85
2023/10/29 04:29:59;;;;;;;;;;;0.90;99.90;;;;;;5022127;28;19912;-85
2023/10/29 04:32:25;;;;;;;;;;;0.90;99.90;;;;;;5035671;28;19905;-85
2023/10/29 04:34:51;;;;;;;;;;;1.00;99.90;;;;;;5017431;28;20429;-85
2023/10/29 04:37:16;;;;;;;;;;;1.00;99.90;;;;;;5026304;28;20289;-86
2023/10/29 04:39:45;;;;;;;;;;;1.00;99.90;;;;;;5024711;28;19909;-86
2023/10/29 04:42:11;;;;;;;;;;;1.00;99.90;;;;;;5061439;28;19912;-85
2023/10/29 04:44:37;;;;;;;;;;;1.00;99.90;;;;;;5050264;28;20589;-85
2023/10/29 04:47:03;;;;;;;;;;;1.00;99.90;;;;;;5026915;28;19910;-85
2023/10/29 04:49:35;;;;;;;;;;;1.00;99.90;;;;;;5008844;28;19913;-85
2023/10/29 04:52:00;;;;;;;;;;;1.00;99.90;;;;;;5034222;28;19915;-86
2023/10/29 04:54:26;;;;;;;;;;;0.90;99.90;;;;;;5034829;28;20435;-85
2023/10/29 04:56:51;;;;;;;;;;;0.90;99.90;;;;;;5016815;28;19933;-85
2023/10/29 04:59:17;;;;;;;;;;;0.90;99.90;;;;;;5033371;28;19947;-85
2023/10/29 05:01:43;;;;;;;;;;;0.80;99.90;;;;;;5026642;28;20009;-86
2023/10/29 05:04:08;;;;;;;;;;;0.80;99.90;;;;;;5015754;28;19932;-86
2023/10/29 05:06:34;;;;;;;;;;;0.80;99.90;;;;;;5033053;28;19905;-86
2023/10/29 05:09:00;;;;;;;;;;;0.80;99.90;;;;;;5033161;28;20386;-86
2023/10/29 05:11:25;;;;;;;;;;;0.80;99.90;;;;;;5042029;28;19975;-87
2023/10/29 05:13:51;;;;;;;;;;;0.80;99.90;;;;;;5045220;28;19912;-85
2023/10/29 05:16:19;;;;;;;;;;;0.90;99.90;;;;;;5013182;28;20021;-85
2023/10/29 05:18:44;;;;;;;;;;;0.80;99.90;;;;;;5045687;28;19905;-87
2023/10/29 05:21:10;;;;;;;;;;;0.90;99.90;;;;;;5019122;28;19905;-85
2023/10/29 05:23:36;;;;;;;;;;;0.80;99.90;;;;;;5031933;28;19912;-85
2023/10/29 05:26:01;;;;;;;;;;;0.90;99.90;;;;;;5011600;28;19979;-86
2023/10/29 05:28:27;;;;;;;;;;;0.90;99.90;;;;;;5007959;28;19913;-85
2023/10/29 05:30:53;;;;;;;;;;;0.90;99.90;;;;;;5013297;28;19909;-87
2023/10/29 05:33:18;;;;;;;;;;;0.90;99.90;;;;;;5032803;28;19988;-85
2023/10/29 05:35:45;;;;;;;;;;;0.90;99.90;;;;;;5027215;28;20353;-86
2023/10/29 05:38:10;;;;;;;;;;;1.00;99.90;;;;;;5041416;28;19912;-86
2023/10/29 05:40:36;;;;;;;;;;;1.10;99.90;;;;;;5043005;28;20358;-89
2023/10/29 05:43:02;;;;;;;;;;;1.10;99.90;;;;;;5040524;28;20370;-86
2023/10/29 05:45:28;;;;;;;;;;;1.10;99.90;;;;;;5040339;28;19984;-87
2023/10/29 05:47:55;;;;;;;;;;;1.10;99.90;;;;;;5028251;28;19894;-86
2023/10/29 05:50:22;;;;;;;;;;;1.20;99.90;;;;;;5038354;28;19959;-86
2023/10/29 05:52:48;;;;;;;;;;;1.10;99.90;;;;;;5034757;28;19915;-83
2023/10/29 05:55:14;;;;;;;;;;;1.20;99.90;;;;;;5038025;28;19905;-88
2023/10/29 05:57:39;;;;;;;;;;;1.20;99.90;;;;;;5022831;28;19910;-88
2023/10/29 06:00:05;;;;;;;;;;;1.20;99.90;;;;;;5010238;28;19912;-87
2023/10/29 06:02:31;;;;;;;;;;;1.30;99.90;;;;;;5004817;28;19910;-87
2023/10/29 06:04:56;;;;;;;;;;;1.30;99.90;;;;;;5015618;28;20385;-86
2023/10/29 06:07:22;;;;;;;;;;;1.30;99.90;;;;;;5030863;28;20710;-85
2023/10/29 06:09:50;;;;;;;;;;;1.20;99.90;;;;;;5004621;28;20442;-84
2023/10/29 06:12:18;;;;;;;;;;;1.20;99.90;;;;;;5030876;28;19905;-85
2023/10/29 06:14:45;;;;;;;;;;;1.20;99.90;;;;;;5022463;28;19927;-86
2023/10/29 06:17:11;;;;;;;;;;;1.20;99.90;;;;;;5027859;28;19905;-86
2023/10/29 06:19:36;;;;;;;;;;;1.20;99.90;;;;;;5024944;28;19905;-85
2023/10/29 06:22:05;;;;;;;;;;;1.20;99.90;;;;;;4998839;28;20723;-85
2023/10/29 06:24:31;;;;;;;;;;;1.30;99.90;;;;;;5034314;28;19958;-85
2023/10/29 06:26:56;;;;;;;;;;;1.30;99.90;;;;;;5040817;28;19905;-86
2023/10/29 06:29:22;;;;;;;;;;;1.30;99.90;;;;;;5043126;28;19921;-85
2023/10/29 06:31:48;;;;;;;;;;;1.30;99.90;;;;;;5036262;28;19909;-85
2023/10/29 06:34:13;;;;;;;;;;;1.30;99.90;;;;;;5019711;28;19905;-86
2023/10/29 06:36:39;;;;;;;;;;;1.30;99.90;;;;;;5039323;28;19912;-87
2023/10/29 06:39:05;;;;;;;;;;;1.30;99.90;;;;;;5027309;28;19966;-87
2023/10/29 06:41:30;;;;;;;;;;;1.40;99.90;;;;;;5036891;28;19944;-85
2023/10/29 06:43:56;;;;;;;;;;;1.40;99.90;;;;;;5018211;28;19905;-85
2023/10/29 06:46:22;;;;;;;;;;;1.50;99.90;;;;;;5035998;28;19978;-86
2023/10/29 06:48:47;;;;;;;;;;;1.50;99.90;;;;;;5034671;28;19921;-87
2023/10/29 06:51:18;;;;;;;;;;;1.50;99.90;;;;;;5030797;28;19913;-86
2023/10/29 06:53:45;;;;;;;;;;;1.40;99.90;;;;;;5033434;28;19959;-87
2023/10/29 06:56:11;;;;;;;;;;;1.40;99.90;;;;;;5030768;28;20008;-87
2023/10/29 06:58:38;;;;;;;;;;;1.30;99.90;;;;;;5033704;28;19996;-86
2023/10/29 07:01:04;;;;;;;;;;;1.30;99.90;;;;;;5035446;28;19905;-87
2023/10/29 07:03:30;;;;;;;;;;;1.40;99.90;;;;;;5034968;28;20259;-86
2023/10/29 07:06:02;;;;;;;;;;;1.40;99.90;;;;;;5016422;28;19916;-86
2023/10/29 07:08:28;;;;;;;;;;;1.40;99.90;;;;;;5013580;28;20008;-85
2023/10/29 07:10:56;;;;;;;;;;;1.40;99.90;;;;;;5036492;28;20452;-87
2023/10/29 07:13:21;;;;;;;;;;;1.40;99.90;;;;;;5014585;28;20362;-87
2023/10/29 07:15:47;;;;;;;;;;;1.40;99.90;;;;;;5000981;28;20006;-88
2023/10/29 07:18:13;;;;;;;;;;;1.30;99.90;;;;;;5006655;28;20100;-87
2023/10/29 07:20:38;;;;;;;;;;;1.30;99.90;;;;;;4998326;28;19917;-85
2023/10/29 07:23:04;;;;;;;;;;;1.30;99.90;;;;;;4991306;28;20370;-88
2023/10/29 07:25:34;;;;;;;;;;;1.30;99.90;;;;;;5006961;28;19945;-86
2023/10/29 07:27:59;;;;;;;;;;;1.40;99.90;;;;;;5014298;28;19988;-88
2023/10/29 07:30:25;;;;;;;;;;;1.40;99.90;;;;;;5018056;28;20013;-88
2023/10/29 07:32:51;;;;;;;;;;;1.40;99.90;;;;;;5015256;28;19961;-87
2023/10/29 07:35:16;;;;;;;;;;;1.40;99.90;;;;;;5014685;28;19941;-89
2023/10/29 07:37:42;;;;;;;;;;;1.40;99.90;;;;;;4996977;28;19913;-87
2023/10/29 07:40:08;;;;;;;;;;;1.50;99.90;;;;;;5013233;28;19910;-85
2023/10/29 07:42:33;;;;;;;;;;;1.50;99.90;;;;;;4994666;28;20323;-87
2023/10/29 07:44:59;;;;;;;;;;;1.60;99.90;;;;;;5015937;28;19905;-87
2023/10/29 07:47:25;;;;;;;;;;;1.60;99.90;;;;;;5014931;28;19918;-88
2023/10/29 07:49:50;;;;;;;;;;;1.60;99.90;;;;;;5015887;28;19914;-88
2023/10/29 07:52:16;;;;;;;;;;;1.60;99.90;;;;;;4996871;28;19992;-88
2023/10/29 07:54:42;;;;;;;;;;;1.60;99.90;;;;;;5015105;28;19942;-88
2023/10/29 07:57:08;;;;;;;;;;;1.60;99.90;;;;;;5014475;28;19906;-88
2023/10/29 07:59:34;;;;;;;;;;;1.60;99.90;;;;;;5014520;28;20421;-87
2023/10/29 08:02:00;;;;;;;;;;;1.70;99.90;;;;;;5015479;28;20104;-88
2023/10/29 08:04:28;;;;;;;;;;;1.70;99.90;;;;;;4999520;28;19936;-88
2023/10/29 08:06:54;;;;;;;;;;;1.80;99.90;;;;;;5015313;28;20279;-88
2023/10/29 08:09:23;;;;;;;;;;;1.80;99.90;;;;;;4997572;28;19913;-87
2023/10/29 08:11:49;;;;;;;;;;;1.80;99.90;;;;;;5018583;28;20285;-86
2023/10/29 08:14:14;;;;;;;;;;;1.90;99.90;;;;;;5004723;28;19992;-86
2023/10/29 08:16:41;;;;;;;;;;;1.90;99.90;;;;;;5036845;28;19905;-89
2023/10/29 08:19:07;;;;;;;;;;;1.80;99.90;;;;;;5030607;28;19905;-87
2023/10/29 08:21:33;;;;;;;;;;;1.80;99.90;;;;;;5036388;28;20238;-88
2023/10/29 08:23:59;;;;;;;;;;;1.70;99.90;;;;;;5016554;28;19954;-87
2023/10/29 08:26:26;;;;;;;;;;;1.70;99.90;;;;;;5011356;28;19941;-89
2023/10/29 08:28:52;;;;;;;;;;;1.70;99.90;;;;;;5024918;28;20358;-86
2023/10/29 08:31:18;;;;;;;;;;;1.80;99.90;;;;;;5018739;28;19957;-86
2023/10/29 08:33:44;;;;;;;;;;;1.70;99.90;;;;;;5027134;28;19905;-88
2023/10/29 08:36:09;;;;;;;;;;;1.60;99.90;;;;;;5041177;28;19905;-86
2023/10/29 08:38:35;;;;;;;;;;;1.60;99.90;;;;;;5044603;28;19996;-87
2023/10/29 08:41:01;;;;;;;;;;;1.70;99.90;;;;;;5016803;28;19948;-88
2023/10/29 08:43:27;;;;;;;;;;;1.70;99.90;;;;;;5042947;28;19912;-87
2023/10/29 08:45:52;;;;;;;;;;;1.70;99.90;;;;;;5045679;28;19916;-86
2023/10/29 08:48:18;;;;;;;;;;;1.60;99.90;;;;;;5030590;28;19957;-88
2023/10/29 08:50:44;;;;;;;;;;;1.70;99.90;;;;;;5015366;28;19909;-88
2023/10/29 08:53:09;;;;;;;;;;;1.70;99.90;;;;;;5042860;28;20035;-88
2023/10/29 08:55:38;;;;;;;;;;;1.70;99.90;;;;;;5026126;28;19916;-88
2023/10/29 08:58:03;;;;;;;;;;;1.80;99.90;;;;;;5026686;28;19913;-88
2023/10/29 09:00:29;;;;;;;;;;;1.90;99.90;;;;;;5053372;28;19976;-88
2023/10/29 09:02:55;;;;;;;;;;;1.90;99.90;;;;;;5030404;28;19913;-88
2023/10/29 09:05:20;;;;;;;;;;;1.90;99.90;;;;;;5026592;28;19936;-87
2023/10/29 09:07:46;;;;;;;;;;;1.90;99.90;;;;;;5041716;28;19935;-91
2023/10/29 09:10:14;;;;;;;;;;;1.90;99.90;;;;;;5023594;28;20357;-89
2023/10/29 09:12:40;;;;;;;;;;;1.90;99.90;;;;;;5003821;28;19912;-87
2023/10/29 09:15:06;;;;;;;;;;;1.90;99.90;;;;;;5029966;28;19917;-90
2023/10/29 09:17:32;;;;;;;;;;;1.90;99.90;;;;;;5027001;28;19913;-89
2023/10/29 09:19:59;;;;;;;;;;;1.90;99.90;;;;;;5036947;28;19903;-91
2023/10/29 09:22:25;;;;;;;;;;;1.90;99.90;;;;;;5021794;28;19906;-87
2023/10/29 09:24:50;;;;;;;;;;;2.00;99.90;;;;;;5002517;28;19912;-90
2023/10/29 09:27:16;;;;;;;;;;;1.90;99.90;;;;;;5014765;28;19996;-86
2023/10/29 09:29:41;;;;;;;;;;;1.90;99.90;;;;;;5013598;28;20401;-88
2023/10/29 09:32:07;;;;;;;;;;;1.90;99.90;;;;;;5013946;28;19910;-88
2023/10/29 09:34:34;;;;;;;;;;;1.90;99.90;;;;;;5017054;28;20271;-87
2023/10/29 09:37:00;;;;;;;;;;;1.90;99.90;;;;;;5022946;28;19912;-89
2023/10/29 09:39:28;;;;;;;;;;;1.80;99.90;;;;;;5003832;28;19906;-90
2023/10/29 09:41:54;;;;;;;;;;;1.90;99.90;;;;;;5021061;28;19956;-89
2023/10/29 09:44:20;;;;;;;;;;;2.00;99.90;;;;;;5027436;28;19936;-88
2023/10/29 09:46:46;;;;;;;;;;;2.10;99.90;;;;;;5019760;28;19916;-88
2023/10/29 09:49:18;;;;;;;;;;;2.10;99.90;;;;;;5025066;28;20270;-91
2023/10/29 09:51:44;;;;;;;;;;;2.20;99.90;;;;;;4996417;28;19912;-90
2023/10/29 09:54:10;;;;;;;;;;;2.20;99.90;;;;;;5023895;28;19904;-89
2023/10/29 09:56:37;;;;;;;;;;;2.20;99.90;;;;;;5019466;28;19928;-87
2023/10/29 09:59:05;;;;;;;;;;;2.20;99.90;;;;;;5001163;28;20118;-89
2023/10/29 10:01:30;;;;;;;;;;;2.10;99.90;;;;;;5003530;28;19909;-85
2023/10/29 10:03:56;;;;;;;;;;;2.10;99.90;;;;;;5022340;28;19905;-88
2023/10/29 10:06:22;;;;;;;;;;;2.00;99.90;;;;;;5016085;28;19920;-82
2023/10/29 10:08:54;;;;;;;;;;;2.00;99.90;;;;;;5015497;28;19922;-82
2023/10/29 10:11:21;;;;;;;;;;;1.90;99.90;;;;;;4998020;28;19906;-82
2023/10/29 10:13:47;;;;;;;;;;;1.90;99.90;;;;;;5017066;28;19909;-91
2023/10/29 10:16:14;;;;;;;;;;;2.00;99.90;;;;;;5016812;28;20594;-90
2023/10/29 10:18:54;;;;;;;;;;;2.10;99.90;;;;;;5021678;28;23684;-94
2023/10/29 10:21:20;;;;;;;;;;;2.10;99.90;;;;;;5035857;28;19905;-92
2023/10/29 10:23:54;;;;;;;;;;;2.10;99.90;;;;;;5030634;28;19909;-95
2023/10/29 10:26:30;;;;;;;;;;;2.10;99.90;;;;;;5020006;28;19909;-91
2023/10/29 10:28:59;;;;;;;;;;;2.10;99.90;;;;;;5049553;28;19917;-92
2023/10/29 10:31:28;;;;;;;;;;;2.10;99.90;;;;;;5059594;28;19912;-87
2023/10/29 10:34:15;;;;;;;;;;;2.10;99.90;;;;;;5030057;28;19920;-90
2023/10/29 10:36:45;;;;;;;;;;;2.10;99.90;;;;;;5020564;28;20004;-88
2023/10/29 10:39:11;;;;;;;;;;;2.10;99.90;;;;;;5026780;28;19912;-88
2023/10/29 10:41:42;;;;;;;;;;;2.10;99.90;;;;;;5021009;28;19905;-86
2023/10/29 10:44:09;;;;;;;;;;;2.10;99.90;;;;;;5042862;28;20379;-88
2023/10/29 10:46:36;;;;;;;;;;;2.10;99.90;;;;;;5046465;28;19913;-87
2023/10/29 10:49:04;;;;;;;;;;;2.10;99.90;;;;;;5048172;28;19909;-86
2023/10/29 10:51:31;;;;;;;;;;;2.20;99.90;;;;;;5041542;28;19932;-89
2023/10/29 10:53:58;;;;;;;;;;;2.20;99.90;;;;;;5052123;28;19943;-86
2023/10/29 10:56:24;;;;;;;;;;;2.20;99.90;;;;;;5038526;28;19975;-87
2023/10/29 10:58:51;;;;;;;;;;;2.20;99.90;;;;;;5031298;28;19906;-88
2023/10/29 11:01:16;;;;;;;;;;;2.20;99.90;;;;;;5043968;28;19905;-87
2023/10/29 11:03:45;;;;;;;;;;;2.20;99.90;;;;;;5039297;28;19931;-91
2023/10/29 11:06:11;;;;;;;;;;;2.20;99.90;;;;;;5033514;28;19916;-90
2023/10/29 11:08:37;;;;;;;;;;;2.20;99.90;;;;;;5023350;28;20289;-89
2023/10/29 11:11:05;;;;;;;;;;;2.10;99.90;;;;;;5008935;28;20340;-87
2023/10/29 11:13:31;;;;;;;;;;;2.20;99.90;;;;;;5013926;28;20361;-89
2023/10/29 11:15:57;;;;;;;;;;;2.20;99.90;;;;;;5026127;28;19925;-90
2023/10/29 11:18:31;;;;;;;;;;;2.20;99.90;;;;;;5039473;28;19992;-89
2023/10/29 11:20:59;;;;;;;;;;;2.10;99.90;;;;;;5035606;28;19941;-89
2023/10/29 11:23:26;;;;;;;;;;;2.10;99.90;;;;;;5019603;28;19929;-89
2023/10/29 11:26:11;;;;;;;;;;;2.10;99.90;;;;;;5038909;28;19908;-91
2023/10/29 11:28:36;;;;;;;;;;;2.10;99.90;;;;;;5013304;28;20259;-91
2023/10/29 11:31:13;;;;;;;;;;;2.20;99.90;;;;;;5038196;28;19916;-91
2023/10/29 11:33:40;;;;;;;;;;;2.20;99.90;;;;;;5025173;28;19909;-92
2023/10/29 11:36:45;;;;;;;;;;;2.20;99.90;;;;;;5020561;28;19911;-92
2023/10/29 11:39:16;;;;;;;;;;;2.20;99.90;;;;;;4941869;29;20038;-93
2023/10/29 11:41:42;;;;;;;;;;;2.20;99.90;;;;;;4958110;29;20120;-91
2023/10/29 11:44:20;;;;;;;;;;;2.30;99.90;;;;;;4954828;29;19914;-87
2023/10/29 11:46:58;;;;;;;;;;;2.30;99.90;;;;;;4936620;29;19911;-87
2023/10/29 11:49:26;;;;;;;;;;;2.30;99.90;;;;;;4936599;29;19925;-87
2023/10/29 11:51:57;;;;;;;;;;;2.30;99.90;;;;;;4936310;29;19958;-88
2023/10/29 11:54:23;;;;;;;;;;;2.30;99.90;;;;;;4930645;29;19906;-88
2023/10/29 11:56:49;;;;;;;;;;;2.30;99.90;;;;;;4937986;29;19918;-85
2023/10/29 11:59:15;;;;;;;;;;;2.40;99.90;;;;;;4935464;29;21635;-89
2023/10/29 12:01:44;;;;;;;;;;;2.40;99.90;;;;;;4936339;29;19914;-89
2023/10/29 12:04:11;;;;;;;;;;;2.40;99.90;;;;;;4953414;29;19919;-89
2023/10/29 12:06:46;;;;;;;;;;;2.40;99.90;;;;;;4950170;29;19906;-90
2023/10/29 12:09:16;;;;;;;;;;;2.40;99.90;;;;;;4948009;28;19914;-90
2023/10/29 12:11:42;;;;;;;;;;;2.50;99.90;;;;;;5015533;28;20382;-88
2023/10/29 12:14:07;;;;;;;;;;;2.40;99.90;;;;;;5026120;28;19909;-88
2023/10/29 12:16:34;;;;;;;;;;;2.40;99.90;;;;;;5026809;28;19908;-90
2023/10/29 12:18:59;;;;;;;;;;;2.30;99.90;;;;;;5021938;28;19905;-84
2023/10/29 12:21:25;;;;;;;;;;;2.30;99.90;;;;;;5044857;28;19912;-85
2023/10/29 12:23:51;;;;;;;;;;;2.20;99.90;;;;;;5046195;28;20001;-86
2023/10/29 12:26:18;;;;;;;;;;;2.20;99.90;;;;;;5015998;28;19980;-88
2023/10/29 12:28:44;;;;;;;;;;;2.20;99.90;;;;;;5014207;28;19917;-87
2023/10/29 12:31:26;;;;;;;;;;;2.30;99.90;;;;;;4996450;28;20243;-84
2023/10/29 12:33:58;;;;;;;;;;;2.30;99.90;;;;;;5005663;28;20424;-87
2023/10/29 12:36:25;;;;;;;;;;;2.30;99.90;;;;;;5018086;28;19940;-86
2023/10/29 12:38:51;;;;;;;;;;;2.30;99.90;;;;;;5008278;28;20397;-87
2023/10/29 12:41:19;;;;;;;;;;;2.20;99.90;;;;;;5000108;28;19909;-87
2023/10/29 12:43:47;;;;;;;;;;;2.20;99.90;;;;;;5013492;28;19906;-85
2023/10/29 12:46:12;;;;;;;;;;;2.20;99.90;;;;;;5037714;28;20418;-87
2023/10/29 12:48:57;;;;;;;;;;;2.20;99.90;;;;;;5004741;28;19912;-86
2023/10/29 12:51:23;;;;;;;;;;;2.30;99.90;;;;;;5022546;28;19952;-84
2023/10/29 12:53:49;;;;;;;;;;;2.30;99.90;;;;;;5024341;28;20382;-83
2023/10/29 12:56:15;;;;;;;;;;;2.30;99.90;;;;;;5012791;28;19905;-83
2023/10/29 12:58:43;;;;;;;;;;;2.30;99.90;;;;;;5013281;28;20349;-83
2023/10/29 13:01:09;;;;;;;;;;;2.30;99.90;;;;;;4994969;28;19912;-84
2023/10/29 13:03:35;;;;;;;;;;;2.40;99.90;;;;;;5014181;28;19906;-82
2023/10/29 13:06:00;;;;;;;;;;;2.40;99.90;;;;;;5012273;28;19910;-83
2023/10/29 13:08:26;;;;;;;;;;;2.30;99.90;;;;;;5012292;28;19964;-84
2023/10/29 13:10:52;;;;;;;;;;;2.20;99.90;;;;;;5015231;28;19985;-90
2023/10/29 13:13:18;;;;;;;;;;;2.20;99.90;;;;;;5004882;28;20307;-88
2023/10/29 13:15:45;;;;;;;;;;;2.20;99.90;;;;;;4995692;28;19921;-82
2023/10/29 13:18:10;;;;;;;;;;;2.10;99.90;;;;;;5012852;28;20385;-83
2023/10/29 13:20:36;;;;;;;;;;;2.20;99.90;;;;;;5012677;28;19948;-82
2023/10/29 13:23:02;;;;;;;;;;;2.20;99.90;;;;;;5011934;28;19909;-80
2023/10/29 13:25:28;;;;;;;;;;;2.20;99.90;;;;;;5012476;28;19915;-82
2023/10/29 13:27:54;;;;;;;;;;;2.20;99.90;;;;;;5012971;28;19911;-82
2023/10/29 13:30:20;;;;;;;;;;;2.20;99.90;;;;;;5012839;28;20000;-82
2023/10/29 13:32:46;;;;;;;;;;;2.20;99.90;;;;;;5001311;28;19910;-83
2023/10/29 13:35:15;;;;;;;;;;;2.20;99.90;;;;;;5016068;28;19913;-82
2023/10/29 13:37:40;;;;;;;;;;;2.20;99.90;;;;;;5026193;28;20089;-83
2023/10/29 13:40:06;;;;;;;;;;;2.10;99.90;;;;;;5015998;28;20044;-82
2023/10/29 13:42:32;;;;;;;;;;;2.20;99.90;;;;;;5016092;28;19916;-82
2023/10/29 13:44:58;;;;;;;;;;;2.10;99.90;;;;;;5016079;28;19932;-81
2023/10/29 13:47:23;;;;;;;;;;;2.20;99.90;;;;;;5016059;28;20282;-84
2023/10/29 13:49:49;;;;;;;;;;;2.20;99.90;;;;;;4998414;28;19919;-81
2023/10/29 13:52:14;;;;;;;;;;;2.20;99.90;;;;;;5016854;28;19906;-83
2023/10/29 13:54:42;;;;;;;;;;;2.20;99.90;;;;;;5020696;28;19906;-81
2023/10/29 13:57:08;;;;;;;;;;;2.20;99.90;;;;;;5006112;28;19937;-80
2023/10/29 13:59:34;;;;;;;;;;;2.20;99.90;;;;;;5015954;28;19949;-83
2023/10/29 14:01:59;;;;;;;;;;;2.20;99.90;;;;;;5015643;28;20286;-80
2023/10/29 14:04:25;;;;;;;;;;;2.30;99.90;;;;;;5015531;28;19906;-81
2023/10/29 14:06:51;;;;;;;;;;;2.30;99.90;;;;;;5015177;28;19912;-81
2023/10/29 14:09:17;;;;;;;;;;;2.30;99.90;;;;;;5015219;28;20367;-80
2023/10/29 14:11:42;;;;;;;;;;;2.30;99.90;;;;;;5014996;28;19905;-82
2023/10/29 14:14:08;;;;;;;;;;;2.30;99.90;;;;;;5015261;28;19960;-82
2023/10/29 14:16:37;;;;;;;;;;;2.30;99.90;;;;;;5020073;28;19909;-82
2023/10/29 14:19:04;;;;;;;;;;;2.40;99.90;;;;;;5015199;28;19999;-81
2023/10/29 14:21:30;;;;;;;;;;;2.30;99.90;;;;;;5015571;28;19958;-83
2023/10/29 14:23:56;;;;;;;;;;;2.30;99.90;;;;;;4997546;28;20004;-83
2023/10/29 14:26:22;;;;;;;;;;;2.30;99.90;;;;;;4997936;28;20397;-82
2023/10/29 14:28:48;;;;;;;;;;;2.30;99.90;;;;;;4997672;28;20295;-83